Latest Weather Observations for Morawa Airport

IDW60801

Issued at 10:03 am WST Sunday 28 November 2021 (issued every 10 minutes, with the page automatically refreshed every 10 minutes)

About weather observations | Map of weather stations | Latest weather observations for WA | Other Formats
Station Details ID: 008296 Name: MORAWA AIRPORT Lat: -29.20 Lon: 116.02 Height: 271.4 m
Data from the previous 72 hours. | See also: Recent months at Morawa Airport
Date/Time
WST
Temp
°C
App
Temp
°C
Dew
Point
°C
Rel
Hum
%
Delta-T
°C
Wind Press
QNH
hPa
Press
MSL
hPa
Rain since
9am
mm
Dir  Spd
km/h
Gust
km/h
Spd
kts
Gust
kts
28/10:00am 35.7 30.8 -0.6 10 18.0 NNE 15 24 8 13 1016.0 1014.8 0.0
28/09:30am 35.0 29.1 -1.1 10 17.7 NNE 20 28 11 15 1016.1 1014.9 0.0
28/09:00am 33.6 27.1 0.3 12 16.6 NNE 24 32 13 17 1016.3 1015.1 0.0
28/08:30am 32.6 26.1 0.6 13 15.9 NE 24 33 13 18 1016.3 1015.1 0.0
28/08:00am 31.3 25.0 1.6 15 14.9 NNE 24 32 13 17 1016.5 1015.3 0.0
28/07:30am 28.4 23.7 1.0 17 13.3 NNE 15 24 8 13 1016.6 1015.4 0.0
28/07:00am 26.7 22.5 1.9 20 12.1 NE 13 19 7 10 1016.6 1015.4 0.0
28/06:30am 25.1 22.2 2.5 23 11.0 NE 7 11 4 6 1016.3 1015.1 0.0
28/06:00am 20.2 19.0 4.7 36 7.6 CALM 0 0 0 0 1016.1 1014.9 0.0
28/05:30am 17.0 15.7 4.3 43 6.1 CALM 0 0 0 0 1015.8 1014.6 0.0
28/05:00am 16.3 14.9 3.7 43 5.9 CALM 0 0 0 0 1015.6 1014.4 0.0
28/04:30am 16.8 15.4 3.8 42 6.1 CALM 0 0 0 0 1015.3 1014.1 0.0
28/04:00am 17.1 15.7 3.8 41 6.3 CALM 0 0 0 0 1015.0 1013.7 0.0
28/03:30am 17.8 16.4 3.7 39 6.7 CALM 0 0 0 0 1014.9 1013.6 0.0
28/03:00am 18.7 17.3 3.7 37 7.2 CALM 0 0 0 0 1014.9 1013.6 0.0
28/02:30am 19.9 18.1 3.6 34 7.8 SSW 2 4 1 2 1014.9 1013.6 0.0
28/02:00am 20.6 18.1 3.8 33 8.1 SSW 6 6 3 3 1014.9 1013.6 0.0
28/01:30am 20.7 18.6 3.9 33 8.2 SSW 4 6 2 3 1015.1 1013.8 0.0
28/01:00am 21.7 19.1 3.4 30 8.9 SSW 6 7 3 4 1015.2 1013.9 0.0
28/12:30am 21.7 19.1 3.4 30 8.9 S 6 7 3 4 1015.4 1014.2 0.0
28/12:00am 22.7 20.1 3.3 28 9.5 S 6 6 3 3 1015.5 1014.3 0.0
 
Date/Time
WST
Temp
°C
App
Temp
°C
Dew
Point
°C
Rel
Hum
%
Delta-T
°C
Wind Press
QNH
hPa
Press
MSL
hPa
Rain since
9am
mm
Dir  Spd
km/h
Gust
km/h
Spd
kts
Gust
kts
27/11:30pm 22.9 20.7 3.4 28 9.5 S 4 6 2 3 1015.8 1014.6 0.0
27/11:00pm 23.9 21.1 3.2 26 10.2 SSW 7 9 4 5 1016.0 1014.8 0.0
27/10:30pm 25.1 21.5 3.1 24 10.9 S 11 15 6 8 1016.1 1014.9 0.0
27/10:00pm 26.1 22.1 2.7 22 11.5 SSW 13 15 7 8 1016.0 1014.8 0.0
27/09:30pm 27.3 23.3 3.1 21 12.1 SSW 13 17 7 9 1016.1 1014.9 0.0
27/09:00pm 28.6 23.8 2.7 19 13.0 SSW 17 22 9 12 1015.8 1014.6 0.0
27/08:30pm 29.5 24.6 1.9 17 13.7 SSW 17 32 9 17 1015.4 1014.2 0.0
27/08:00pm 28.6 25.5 -2.5 13 14.2 SSE 4 6 2 3 1015.0 1013.7 0.0
27/07:30pm 29.3 25.6 -3.0 12 14.7 SSE 7 9 4 5 1014.7 1013.4 0.0
27/07:00pm 31.7 27.2 -3.6 10 16.2 SSE 11 13 6 7 1014.5 1013.2 0.0
27/06:30pm 34.5 30.4 -2.9 9 17.8 SE 9 17 5 9 1014.3 1013.0 0.0
27/06:00pm 35.6 30.5 -2.1 9 18.3 SE 15 24 8 13 1014.1 1012.8 0.0
27/05:30pm 36.2 31.5 -1.7 9 18.6 SE 13 20 7 11 1014.0 1012.7 0.0
27/05:00pm 36.6 31.6 -1.4 9 18.8 ESE 15 24 8 13 1013.8 1012.5 0.0
27/04:30pm 37.3 32.9 -2.4 8 19.4 SSE 11 20 6 11 1013.7 1012.4 0.0
27/04:00pm 37.2 32.4 -2.5 8 19.3 SE 13 20 7 11 1013.8 1012.5 0.0
27/03:30pm 36.9 31.7 -2.7 8 19.2 E 15 35 8 19 1014.0 1012.7 0.0
27/03:00pm 37.2 32.4 -2.5 8 19.3 NE 13 24 7 13 1014.0 1012.7 0.0
27/02:30pm 37.2 32.8 -2.5 8 19.3 E 11 20 6 11 1014.4 1013.1 0.0
27/02:00pm 36.5 31.5 -1.4 9 18.7 ENE 15 28 8 15 1014.8 1013.5 0.0
27/01:30pm 36.4 31.7 -1.5 9 18.7 ENE 13 26 7 14 1015.2 1013.9 0.0
27/01:00pm 36.9 31.5 -1.1 9 18.9 ENE 17 30 9 16 1015.5 1014.3 0.0
27/12:30pm 36.1 30.7 -1.7 9 18.5 ENE 17 35 9 19 1015.8 1014.6 0.0
27/12:00pm 35.8 31.3 -0.5 10 18.1 NE 13 30 7 16 1016.3 1015.1 0.0
27/11:30am 34.6 30.7 -1.4 10 17.5 E 9 22 5 12 1016.8 1015.6 0.0
27/11:00am 35.1 29.4 -1.1 10 17.8 NE 19 32 10 17 1017.2 1016.0 0.0
27/10:30am 34.4 28.6 -0.3 11 17.2 NNE 20 33 11 18 1017.6 1016.3 0.0
27/10:00am 33.9 28.2 0.5 12 16.7 NNE 20 28 11 15 1017.8 1016.5 0.0
27/09:30am 32.9 26.5 0.9 13 16.0 NNE 24 32 13 17 1018.1 1016.8 0.0
27/09:00am 32.7 26.3 0.7 13 15.9 NNE 24 33 13 18 1018.3 1017.0 0.0
27/08:30am 31.4 24.7 1.7 15 14.9 NE 26 33 14 18 1018.5 1017.3 0.0
27/08:00am 29.9 23.3 2.2 17 13.9 NE 26 33 14 18 1018.6 1017.4 0.0
27/07:30am 27.7 21.5 2.0 19 12.7 NE 24 32 13 17 1018.6 1017.4 0.0
27/07:00am 26.6 21.2 1.1 19 12.3 NE 19 24 10 13 1018.4 1017.1 0.0
27/06:30am 24.9 21.1 1.7 22 11.2 ENE 11 17 6 9 1018.3 1017.0 0.0
27/06:00am 21.5 19.7 3.2 30 8.8 NE 2 4 1 2 1018.0 1016.7 0.0
27/05:30am 18.9 16.2 2.7 34 7.6 NE 6 7 3 4 1017.7 1016.4 0.0
27/05:00am 16.5 13.9 3.2 41 6.2 NNE 6 6 3 3 1017.2 1016.0 0.0
27/04:30am 17.0 15.6 3.7 41 6.3 CALM 0 0 0 0 1016.8 1015.6 0.0
27/04:00am 17.7 16.0 3.9 40 6.6 WNW 2 4 1 2 1016.6 1015.4 0.0
27/03:30am 17.7 16.2 2.8 37 6.9 CALM 0 0 0 0 1016.2 1015.0 0.0
27/03:00am 19.1 17.3 3.7 36 7.4 SSW 2 4 1 2 1016.1 1014.9 0.0
27/02:30am 19.6 17.1 3.7 35 7.6 SSW 6 7 3 4 1016.2 1015.0 0.0
27/02:00am 20.4 19.0 3.6 33 8.1 CALM 0 2 0 1 1016.2 1015.0 0.0
27/01:30am 21.6 19.2 2.3 28 9.2 S 4 6 2 3 1016.2 1015.0 0.0
27/01:00am 23.3 20.8 1.6 24 10.3 SSW 4 6 2 3 1016.4 1015.2 0.0
27/12:30am 23.7 20.7 2.0 24 10.4 SSE 7 13 4 7 1016.4 1015.2 0.0
27/12:00am 23.4 20.0 1.7 24 10.3 SSW 9 13 5 7 1016.5 1015.3 0.0
 
Date/Time
WST
Temp
°C
App
Temp
°C
Dew
Point
°C
Rel
Hum
%
Delta-T
°C
Wind Press
QNH
hPa
Press
MSL
hPa
Rain since
9am
mm
Dir  Spd
km/h
Gust
km/h
Spd
kts
Gust
kts
26/11:30pm 25.9 22.3 0.5 19 12.0 SSE 9 17 5 9 1016.5 1015.3 0.0
26/11:00pm 24.4 21.5 1.3 22 11.0 WSW 6 9 3 5 1016.7 1015.5 0.0
26/10:30pm 24.5 21.4 1.4 22 11.0 ESE 7 9 4 5 1016.7 1015.5 0.0
26/10:00pm 24.7 21.5 0.9 21 11.2 SE 7 9 4 5 1016.6 1015.4 0.0
26/09:30pm 25.7 22.6 0.4 19 11.9 SE 6 7 3 4 1016.5 1015.3 0.0
26/09:00pm 25.9 22.7 -0.2 18 12.2 SE 6 7 3 4 1016.2 1015.0 0.0
26/08:30pm 26.3 22.5 -0.7 17 12.6 ESE 9 11 5 6 1016.0 1014.8 0.0
26/08:00pm 26.9 23.1 -1.0 16 12.9 SE 9 11 5 6 1015.7 1014.5 0.0
26/07:30pm 28.7 24.8 -1.4 14 14.1 SE 9 11 5 6 1015.4 1014.2 0.0
26/07:00pm 31.3 26.5 -2.6 11 15.8 SE 13 17 7 9 1015.2 1013.9 0.0
26/06:30pm 33.7 29.3 -2.1 10 17.1 SE 11 20 6 11 1014.9 1013.6 0.0
26/06:00pm 34.8 29.2 -2.7 9 17.9 ESE 17 28 9 15 1014.7 1013.4 0.0
26/05:30pm 35.5 30.7 -2.2 9 18.2 E 13 20 7 11 1014.5 1013.2 0.0
26/05:00pm 35.7 31.7 -2.0 9 18.3 ESE 9 17 5 9 1014.5 1013.2 0.0
26/04:30pm 36.1 32.0 -3.3 8 18.8 ENE 9 20 5 11 1014.6 1013.3 0.0
26/04:00pm 36.4 31.9 -3.1 8 18.9 SE 11 19 6 10 1014.9 1013.6 0.0
26/03:30pm 36.1 32.0 -3.3 8 18.8 ESE 9 17 5 9 1015.0 1013.7 0.0
26/03:00pm 36.4 30.4 -3.1 8 18.9 E 19 35 10 19 1015.2 1013.9 0.0
26/02:30pm 36.6 31.7 -3.0 8 19.1 E 13 24 7 13 1015.3 1014.1 0.0
26/02:00pm 35.8 31.1 -2.0 9 18.4 E 13 24 7 13 1015.7 1014.5 0.0
26/01:30pm 36.5 32.2 -1.4 9 18.7 ENE 11 28 6 15 1015.9 1014.7 0.0
26/01:00pm 35.4 29.9 -2.3 9 18.2 E 17 28 9 15 1016.3 1015.1 0.0
26/12:30pm 35.8 30.3 -2.0 9 18.4 SE 17 28 9 15 1016.6 1015.4 0.0
26/12:00pm 35.1 31.3 -1.1 10 17.8 E 9 24 5 13 1016.9 1015.7 0.0
26/11:30am 34.6 30.3 -1.4 10 17.5 E 11 26 6 14 1017.4 1016.1 0.0
26/11:00am 33.8 28.9 -0.7 11 16.9 NE 15 28 8 15 1017.7 1016.4 0.0
26/10:30am 33.5 27.8 -1.0 11 16.8 NE 19 32 10 17 1018.0 1016.7 0.0
26/10:00am 33.1 27.3 -1.3 11 16.6 NE 19 26 10 14 1018.1 1016.8 0.0
26/09:30am 32.2 26.3 -0.8 12 16.0 NE 20 28 11 15 1018.3 1017.0 0.0
26/09:00am 31.1 24.9 -0.5 13 15.2 NNE 22 32 12 17 1018.5 1017.3 0.0
26/08:30am 29.9 24.8 0.5 15 14.3 NE 17 28 9 15 1018.7 1017.5 0.0
26/08:00am 28.1 22.8 -0.9 15 13.6 NE 17 22 9 12 1018.9 1017.7 0.0
26/07:30am 26.4 20.6 -1.4 16 12.8 NE 19 26 10 14 1018.7 1017.5 0.0
26/07:00am 25.6 20.1 -2.1 16 12.5 NE 17 24 9 13 1018.5 1017.3 0.0
26/06:30am 23.8 20.7 0.2 21 10.9 ENE 6 11 3 6 1018.2 1016.9 0.0
26/06:00am 20.7 18.6 1.6 28 8.9 E 2 6 1 3 1018.0 1016.7 0.0
26/05:30am 16.8 14.3 1.3 35 6.9 E 4 6 2 3 1017.6 1016.3 0.0
26/05:00am 16.4 14.2 1.3 36 6.7 E 2 2 1 1 1017.4 1016.1 0.0
26/04:30am 17.5 14.4 1.1 33 7.4 E 7 9 4 5 1017.0 1015.8 0.0
26/04:00am 18.2 15.1 1.3 32 7.6 E 7 9 4 5 1016.8 1015.6 0.0
26/03:30am 18.8 15.6 0.9 30 8.1 E 7 11 4 6 1016.6 1015.4 0.0
26/03:00am 20.3 17.2 1.2 28 8.8 SSE 7 9 4 5 1016.6 1015.4 0.0
26/02:30am 20.0 17.3 0.5 27 8.8 SE 4 7 2 4 1016.5 1015.3 0.0
26/02:00am 20.6 17.8 -0.1 25 9.3 ESE 4 7 2 4 1016.3 1015.1 0.0
26/01:30am 21.4 17.7 0.0 24 9.7 ESE 9 11 5 6 1016.2 1015.0 0.0
26/01:00am 22.9 18.7 -0.6 21 10.6 ESE 11 15 6 8 1016.3 1015.1 0.0
26/12:30am 23.7 19.2 -0.6 20 11.1 SE 13 17 7 9 1016.3 1015.1 0.0
26/12:00am 24.5 19.9 -1.3 18 11.7 ESE 13 19 7 10 1016.6 1015.4 0.0
 
Date/Time
WST
Temp
°C
App
Temp
°C
Dew
Point
°C
Rel
Hum
%
Delta-T
°C
Wind Press
QNH
hPa
Press
MSL
hPa
Rain since
9am
mm
Dir  Spd
km/h
Gust
km/h
Spd
kts
Gust
kts
25/11:30pm 25.0 19.9 -1.7 17 12.1 ESE 15 20 8 11 1016.9 1015.7 0.0
25/11:00pm 25.1 19.9 -2.5 16 12.3 SE 15 19 8 10 1016.9 1015.7 0.0
25/10:30pm 25.8 21.0 -2.8 15 12.7 SE 13 19 7 10 1016.9 1015.7 0.0
25/10:00pm 26.7 21.5 -3.0 14 13.3 SE 15 20 8 11 1016.9 1015.7 0.0
25/09:30pm 23.7 19.6 -2.8 17 11.6 SE 9 11 5 6 1016.9 1015.7 0.0
25/09:00pm 24.2 20.2 -2.4 17 11.8 SE 9 11 5 6 1016.8 1015.6 0.0
25/08:30pm 24.5 20.9 -2.1 17 11.9 SE 7 9 4 5 1016.6 1015.4 0.0
25/08:00pm 26.0 22.3 -2.6 15 12.8 SE 7 9 4 5 1016.3 1015.1 0.0
25/07:30pm 28.1 23.6 -2.9 13 14.0 SE 11 13 6 7 1016.0 1014.8 0.0
25/07:00pm 30.4 25.4 -4.6 10 15.7 SE 13 17 7 9 1015.8 1014.6 0.0
25/06:30pm 32.7 27.7 -4.3 9 17.0 SE 13 20 7 11 1015.6 1014.4 0.0
25/06:00pm 34.2 29.2 -4.7 8 17.9 ESE 13 20 7 11 1015.3 1014.1 0.0
25/05:30pm 34.7 29.3 -4.4 8 18.2 SE 15 22 8 12 1015.0 1013.7 0.0
25/05:00pm 35.0 29.6 -4.1 8 18.3 ESE 15 26 8 14 1014.9 1013.6 0.0
25/04:30pm 35.2 30.2 -4.0 8 18.4 SSE 13 22 7 12 1014.9 1013.6 0.0
25/04:00pm 35.3 29.2 -3.9 8 18.4 SE 19 26 10 14 1014.9 1013.6 0.0
25/03:30pm 35.4 30.5 -3.8 8 18.5 ESE 13 30 7 16 1015.2 1013.9 0.0
25/03:00pm 35.4 30.5 -3.8 8 18.5 ESE 13 24 7 13 1015.3 1014.1 0.0
25/02:30pm 35.4 30.1 -3.8 8 18.5 E 15 43 8 23 1015.6 1014.4 0.0
25/02:00pm 34.7 30.4 -4.4 8 18.1 E 9 20 5 11 1016.0 1014.8 0.0
25/01:30pm 34.9 29.5 -4.2 8 18.2 ESE 15 26 8 14 1016.3 1015.1 0.0
25/01:00pm 35.0 29.6 -4.1 8 18.3 E 15 28 8 15 1016.3 1015.1 0.0
25/12:30pm 33.9 29.0 -3.4 9 17.5 E 13 28 7 15 1016.7 1015.5 0.0
25/12:00pm 33.7 28.4 -3.5 9 17.4 ENE 15 30 8 16 1017.1 1015.9 0.0
25/11:30am 33.4 28.6 -2.3 10 17.0 ENE 13 30 7 16 1017.6 1016.3 0.0
25/11:00am 33.2 27.6 -2.5 10 16.9 ENE 17 28 9 15 1017.9 1016.6 0.0
25/10:30am 32.6 26.8 -1.7 11 16.4 NE 19 30 10 16 1018.3 1017.0 0.0

Other formats

Comma delimited format used in spreadsheet applications
http://www.bom.gov.au/fwo/IDW60801/IDW60801.94417.axf

JavaScript Object Notation format (JSON) in row-major order
http://www.bom.gov.au/fwo/IDW60801/IDW60801.94417.json

Data quality

Most of these data are generated automatically and are frequently updated. Quality checks on data are not normally performed. It is possible for incorrect values to appear. Refer to information at About Latest Weather Observations and please check the disclaimer before using these data.